Nearby METAR Reports

 

KSJC - San Jose, California, USA
Distance from station: NE 9mi, 14km
Updated: Fri, 27-Nov-2020 3:53pm CST
Few Clouds
Few Clouds
 Wind from varies
Wind: varies 5 mph , 7 km/h
Temperature: 64°F , 18°C
Dew Point: 23°F , -5°C
Humidity: 21%
Barometer: 30.18 inHg , 1022 hPa
Clouds: Few Clouds
Visibility: 10 miles , 16 km
Cloud details: Few Clouds 12000 ft
2020/11/27 21:53 KSJC 272153Z VRB04KT 10SM FEW120 18/M05 A3018 RMK AO2 SLP219 T01781050 $
KNUQ - Moffett Nas/Mtn, California, USA
Distance from station: N 9mi, 14km
Updated: Sun, 15-Nov-2020 4:00am CST
NOT Current
Clear
Clear
 Wind from calm
Wind: Calm
Temperature: 43°F , 6°C
Dew Point: 41°F , 5°C
Humidity: 93%
Barometer: 30.28 inHg , 1025.4 hPa
Clouds: Clear
Visibility: 10 miles , 16 km
2020/11/15 10:00 KNUQ 151000Z AUTO 00000KT 10SM CLR 06/05 A3028 RMK AO2
 
KPAO - Palo Alto, California, USA
Distance from station: NNW 14mi, 23km
Updated: Fri, 27-Nov-2020 3:47pm CST
Clear
Clear
 Wind from NNW
Wind: NNW 6 mph , 9 km/h
Temperature: 63°F , 17°C
Dew Point: 28°F , -2°C
Humidity: 27%
Barometer: 30.19 inHg , 1022.4 hPa
Clouds: Clear
Visibility: 10 miles , 16 km
2020/11/27 21:47 KPAO 272147Z 34005KT 10SM SKC 17/M02 A3019
KRHV - San Jose/Reid, California, USA
Distance from station: ENE 12mi, 19km
Updated: Fri, 27-Nov-2020 3:47pm CST
Clear
Clear
 Wind from varies
Wind: varies 3 mph , 6 km/h
Temperature: 64°F , 18°C
Dew Point: 21°F , -6°C
Humidity: 19%
Barometer: 30.18 inHg , 1022 hPa
Clouds: Clear
Visibility: 10 miles , 16 km
2020/11/27 21:47 KRHV 272147Z VRB03KT 10SM SKC 18/M06 A3018
 
KOAK - Oakland, California, USA
Distance from station: NNW 31mi, 50km
Updated: Fri, 27-Nov-2020 3:53pm CST
Few Clouds
Few Clouds
 Wind from W
Wind: W 6 mph , 9 km/h
Temperature: 63°F , 17°C
Dew Point: 30°F , -1°C
Humidity: 30%
Barometer: 30.20 inHg , 1022.7 hPa
Clouds: Few Clouds
Visibility: 10 miles , 16 km
Cloud details: Few Clouds 20000 ft
2020/11/27 21:53 KOAK 272153Z 27005KT 10SM FEW200 17/M01 A3020 RMK AO2 SLP226 T01721006
KSQL - San Carlos Airpo, California, USA
Distance from station: NW 21mi, 34km
Updated: Fri, 27-Nov-2020 3:47pm CST
Clear
Clear
 Wind from varies
Wind: varies 5 mph , 7 km/h
Temperature: 61°F , 16°C
Dew Point: 30°F , -1°C
Humidity: 31%
Barometer: 30.20 inHg , 1022.7 hPa
Clouds: Clear
Visibility: 10 miles , 16 km
2020/11/27 21:47 KSQL 272147Z VRB04KT 10SM SKC 16/M01 A3020
 
KSFO - San Francisco, California, USA
Distance from station: NW 30mi, 49km
Updated: Fri, 27-Nov-2020 3:56pm CST
Few Clouds
Few Clouds
 Wind from N
Wind: N 3 mph , 6 km/h
Temperature: 64°F , 18°C
Dew Point: 30°F , -1°C
Humidity: 28%
Barometer: 30.19 inHg , 1022.4 hPa
Clouds: Few Clouds
Visibility: 10 miles , 16 km
Cloud details: Few Clouds 20000 ft
2020/11/27 21:56 KSFO 272156Z 36003KT 10SM FEW200 18/M01 A3019 RMK AO2 SLP223 T01781006
KE16 - San Martin, California, USA
Distance from station: ESE 27mi, 43km
Updated: Fri, 27-Nov-2020 4:15pm CST
Clear
Clear
 Wind from calm
Wind: Calm
Temperature: 66°F , 19°C
Dew Point: 16°F , -9°C
Humidity: 14%
Barometer: 30.18 inHg , 1022 hPa
Clouds: Clear
Visibility: 10 miles , 16 km
2020/11/27 22:15 KE16 272215Z AUTO 00000KT 10SM CLR 19/M09 A3018 RMK AO2 PWINO PNO
 
KWVI - Watsonville, California, USA
Distance from station: SSE 27mi, 44km
Updated: Fri, 27-Nov-2020 3:53pm CST
Clear
Clear
 Wind from ESE
Wind: ESE 5 mph , 7 km/h
Temperature: 68°F , 20°C
Dew Point: 21°F , -6°C
Humidity: 17%
Barometer: 30.17 inHg , 1021.7 hPa
Clouds: Clear
Visibility: 10 miles , 16 km
2020/11/27 21:53 KWVI 272153Z AUTO 12004KT 10SM CLR 20/M06 A3017 RMK AO2 SLP216 T02001056
KHAF - Half Moon Bay, California, USA
Distance from station: WNW 31mi, 50km
Updated: Fri, 27-Nov-2020 4:15pm CST
Clear
Clear
 Wind from NE
Wind: NE 14 mph , 22 km/h
Temperature: 64°F , 18°C
Dew Point: 21°F , -6°C
Humidity: 19%
Barometer: 30.18 inHg , 1022 hPa
Clouds: Clear
Visibility: 9 miles , 14 km
2020/11/27 22:15 KHAF 272215Z AUTO 05012KT 9SM CLR 18/M06 A3018 RMK AO2
 
KHWD - Hayward, California, USA
Distance from station: N 28mi, 44km
Updated: Fri, 27-Nov-2020 3:54pm CST
Clear
Clear
 Wind from WNW
Wind: WNW 6 mph , 9 km/h
Temperature: 64°F , 18°C
Dew Point: 25°F , -4°C
Humidity: 22%
Barometer: 30.18 inHg , 1022 hPa
Clouds: Clear
Visibility: 10 miles , 16 km
2020/11/27 21:54 KHWD 272154Z 29005KT 10SM CLR 18/M04 A3018 RMK AO2 SLP230 T01781039
KLVK - Livermore, California, USA
Distance from station: NNE 31mi, 51km
Updated: Fri, 27-Nov-2020 3:53pm CST
Clear
Clear
 Wind from SE
Wind: SE 5 mph , 7 km/h
Temperature: 63°F , 17°C
Dew Point: 18°F , -8°C
Humidity: 17%
Barometer: 30.18 inHg , 1022 hPa
Clouds: Clear
Visibility: 10 miles , 16 km
2020/11/27 21:53 KLVK 272153Z 13004KT 10SM CLR 17/M08 A3018 RMK AO2 SLP217 T01721078